createdAt,value
2023-01-13T00:03:58.295Z,9.20
2023-01-13T00:10:00.202Z,9.20
2023-01-13T00:16:05.115Z,9.20
2023-01-13T00:22:07.156Z,9.30
2023-01-13T00:28:10.159Z,9.20
2023-01-13T00:34:12.016Z,9.20
2023-01-13T00:40:14.207Z,9.20
2023-01-13T00:46:20.643Z,9.20
2023-01-13T00:52:22.676Z,9.20
2023-01-13T00:58:24.537Z,9.20
2023-01-13T01:04:26.525Z,9.20
2023-01-13T01:10:29.334Z,9.20
2023-01-13T01:16:32.725Z,9.20
2023-01-13T01:22:34.685Z,9.30
2023-01-13T01:28:36.652Z,9.30
2023-01-13T01:34:39.328Z,9.20
2023-01-13T01:40:41.255Z,9.30
2023-01-13T01:46:44.466Z,9.30
2023-01-13T01:52:56.696Z,9.30
2023-01-13T01:58:58.589Z,9.30
2023-01-13T02:05:01.378Z,9.40
2023-01-13T02:11:03.265Z,9.40
2023-01-13T02:17:38.843Z,9.30
2023-01-13T02:24:38.523Z,9.30
2023-01-13T02:31:08.459Z,9.30
2023-01-13T02:37:20.897Z,9.40
2023-01-13T02:43:56.375Z,9.50
2023-01-13T02:50:09.088Z,9.50
2023-01-13T02:56:13.137Z,9.40
2023-01-13T03:02:19.393Z,9.40
2023-01-13T03:08:43.237Z,9.40
2023-01-13T03:14:54.778Z,9.30
2023-01-13T03:21:07.503Z,9.30
2023-01-13T03:27:39.841Z,9.40
2023-01-13T03:33:55.078Z,9.40
2023-01-13T03:40:01.569Z,9.40
2023-01-13T03:46:09.711Z,9.40
2023-01-13T03:52:18.771Z,9.40
2023-01-13T03:58:32.812Z,9.40
2023-01-13T04:04:52.038Z,9.50
2023-01-13T04:11:06.682Z,9.50
2023-01-13T04:17:08.563Z,9.20
2023-01-13T04:23:10.933Z,8.80
2023-01-13T04:29:15.369Z,8.60
2023-01-13T04:35:17.351Z,8.40
2023-01-13T04:41:19.192Z,8.40
2023-01-13T04:47:20.941Z,8.30
2023-01-13T04:53:22.712Z,8.10
2023-01-13T04:59:24.550Z,8.00
2023-01-13T05:05:28.129Z,7.90
2023-01-13T05:11:48.497Z,7.90
2023-01-13T05:17:53.026Z,7.70
2023-01-13T05:24:13.286Z,7.50
2023-01-13T05:30:15.706Z,7.40
2023-01-13T05:36:18.646Z,7.50
2023-01-13T05:42:39.069Z,7.40
2023-01-13T05:48:42.555Z,7.20
2023-01-13T05:54:44.305Z,7.20
2023-01-13T06:00:46.446Z,7.20
2023-01-13T06:06:48.941Z,7.40
2023-01-13T06:12:50.894Z,7.50
2023-01-13T06:18:52.634Z,7.40
2023-01-13T06:24:54.832Z,7.20
2023-01-13T06:31:00.063Z,7.00
2023-01-13T06:37:03.772Z,6.90
2023-01-13T06:43:16.446Z,6.70
2023-01-13T06:49:21.396Z,6.50
2023-01-13T06:55:25.533Z,6.40
2023-01-13T07:01:27.485Z,6.60
2023-01-13T07:07:29.323Z,6.80
2023-01-13T07:13:49.535Z,7.00
2023-01-13T07:19:52.490Z,7.10
2023-01-13T07:25:58.395Z,7.10
2023-01-13T07:32:00.173Z,7.20
2023-01-13T07:38:02.172Z,7.20
2023-01-13T07:44:07.275Z,7.20
2023-01-13T07:50:09.637Z,7.30
2023-01-13T07:56:11.371Z,7.30
2023-01-13T08:02:13.605Z,7.20
2023-01-13T08:08:15.912Z,7.10
2023-01-13T08:14:17.718Z,7.30
2023-01-13T08:20:21.725Z,7.40
2023-01-13T08:26:25.635Z,7.50
2023-01-13T08:32:27.388Z,7.60
2023-01-13T08:38:29.244Z,7.70
2023-01-13T08:44:32.762Z,7.80
2023-01-13T08:50:34.842Z,7.90
2023-01-13T08:56:36.717Z,7.90
2023-01-13T09:02:38.728Z,8.10
2023-01-13T09:08:40.967Z,8.20
2023-01-13T09:14:42.771Z,8.20
2023-01-13T09:20:44.697Z,8.40
2023-01-13T09:26:49.322Z,8.50
2023-01-13T09:33:11.049Z,8.80
2023-01-13T09:39:13.230Z,9.20
2023-01-13T09:45:56.055Z,9.20
2023-01-13T09:52:07.148Z,9.40
2023-01-13T09:58:19.771Z,9.40
2023-01-13T10:04:27.816Z,9.40
2023-01-13T10:10:46.565Z,9.10
2023-01-13T10:16:51.469Z,9.10
2023-01-13T10:23:20.418Z,9.00
2023-01-13T10:29:25.858Z,8.90
2023-01-13T10:36:00.562Z,8.90
2023-01-13T10:42:09.713Z,8.80
2023-01-13T10:48:15.010Z,8.70
2023-01-13T10:54:23.594Z,8.60
2023-01-13T11:00:34.316Z,8.60
2023-01-13T11:06:37.639Z,8.60
2023-01-13T11:12:58.213Z,8.60
2023-01-13T11:19:14.099Z,8.70
2023-01-13T11:25:41.939Z,8.90
2023-01-13T11:31:49.365Z,9.00
2023-01-13T11:38:02.696Z,9.00
2023-01-13T11:44:17.189Z,9.10
2023-01-13T11:50:25.206Z,9.20
2023-01-13T11:57:04.932Z,9.10
2023-01-13T12:03:32.039Z,9.00
2023-01-13T12:09:45.585Z,8.90
2023-01-13T12:16:15.818Z,8.70
2023-01-13T12:22:27.687Z,8.40
2023-01-13T12:28:43.019Z,8.40
2023-01-13T12:34:49.928Z,8.50
2023-01-13T12:40:54.689Z,8.80
2023-01-13T12:46:58.277Z,8.90
2023-01-13T12:53:21.191Z,8.60
2023-01-13T12:59:25.679Z,8.60
2023-01-13T13:05:51.574Z,8.80
2023-01-13T13:11:59.064Z,8.90
2023-01-13T13:18:25.045Z,8.90
2023-01-13T13:24:27.517Z,9.30
2023-01-13T13:30:48.783Z,9.30
2023-01-13T13:37:08.293Z,9.20
2023-01-13T13:43:33.937Z,8.90
2023-01-13T13:49:41.193Z,8.70
2023-01-13T13:55:57.323Z,8.60
2023-01-13T14:02:01.658Z,8.60
2023-01-13T14:08:13.125Z,8.60
2023-01-13T14:14:17.281Z,8.60
2023-01-13T14:20:19.550Z,8.60
2023-01-13T14:26:26.329Z,8.60
2023-01-13T14:32:36.655Z,8.30
2023-01-13T14:38:38.747Z,8.10
2023-01-13T14:44:45.554Z,8.00
2023-01-13T14:50:47.419Z,7.90
2023-01-13T14:56:55.097Z,7.80
2023-01-13T15:03:07.256Z,7.60
2023-01-13T15:09:23.793Z,7.50
2023-01-13T15:15:39.686Z,7.20
2023-01-13T15:21:41.435Z,7.20
2023-01-13T15:27:50.186Z,7.10
2023-01-13T15:33:52.012Z,7.10
2023-01-13T15:39:53.812Z,7.10
2023-01-13T15:46:14.112Z,7.10
2023-01-13T15:52:26.781Z,7.10
2023-01-13T15:58:30.589Z,7.10
2023-01-13T16:04:32.397Z,7.10
2023-01-13T16:10:34.158Z,7.10
2023-01-13T16:16:36.044Z,7.20
2023-01-13T16:22:37.899Z,7.30
2023-01-13T16:28:39.667Z,7.30
2023-01-13T16:34:59.770Z,7.20
2023-01-13T16:41:01.679Z,7.20
2023-01-13T16:47:03.606Z,7.00
2023-01-13T16:53:06.253Z,7.00
2023-01-13T16:59:17.053Z,6.90
2023-01-13T17:05:18.928Z,7.00
2023-01-13T17:11:22.052Z,7.00
2023-01-13T17:17:26.878Z,6.90
2023-01-13T17:23:29.797Z,6.90
2023-01-13T17:29:32.859Z,7.00
2023-01-13T17:35:34.660Z,6.90
2023-01-13T17:41:36.392Z,6.90
2023-01-13T17:48:00.486Z,6.90
2023-01-13T17:54:02.351Z,7.00
2023-01-13T18:00:05.258Z,7.10
2023-01-13T18:06:20.301Z,7.00
2023-01-13T18:12:22.109Z,7.10
2023-01-13T18:18:23.870Z,7.20
2023-01-13T18:24:44.189Z,7.20
2023-01-13T18:30:46.016Z,7.20
2023-01-13T18:36:47.932Z,7.30
2023-01-13T18:42:54.155Z,7.30
2023-01-13T18:48:56.094Z,7.20
2023-01-13T18:54:57.866Z,7.10
2023-01-13T19:01:05.170Z,7.10
2023-01-13T19:07:08.523Z,7.10
2023-01-13T19:13:10.964Z,7.00
2023-01-13T19:19:12.976Z,7.10
2023-01-13T19:25:14.961Z,7.20
2023-01-13T19:31:17.134Z,7.20
2023-01-13T19:37:19.419Z,7.20
2023-01-13T19:43:39.984Z,7.30
2023-01-13T19:49:42.057Z,7.30
2023-01-13T19:55:48.616Z,7.40
2023-01-13T20:01:50.484Z,7.30
2023-01-13T20:07:52.798Z,7.30
2023-01-13T20:13:55.896Z,7.30
2023-01-13T20:20:00.137Z,7.30
2023-01-13T20:26:02.104Z,7.40
2023-01-13T20:32:04.379Z,7.40
2023-01-13T20:38:07.220Z,7.50
2023-01-13T20:44:17.642Z,7.50
2023-01-13T20:50:19.489Z,7.50
2023-01-13T20:56:21.466Z,7.40
2023-01-13T21:02:25.277Z,7.30
2023-01-13T21:08:27.120Z,7.20
2023-01-13T21:14:48.179Z,7.30
2023-01-13T21:20:51.582Z,7.30
2023-01-13T21:26:59.182Z,7.30
2023-01-13T21:33:03.937Z,7.40
2023-01-13T21:39:06.658Z,7.40
2023-01-13T21:45:29.304Z,7.50
2023-01-13T21:51:31.552Z,7.40
2023-01-13T21:57:33.317Z,7.50
2023-01-13T22:03:55.735Z,7.50
2023-01-13T22:09:57.604Z,7.50
2023-01-13T22:16:04.349Z,7.60
2023-01-13T22:22:07.378Z,7.50
2023-01-13T22:28:09.425Z,7.40
2023-01-13T22:34:12.678Z,7.40
2023-01-13T22:40:14.617Z,7.30
2023-01-13T22:46:17.159Z,7.20
2023-01-13T22:52:19.104Z,7.10
2023-01-13T22:58:21.281Z,7.10
2023-01-13T23:04:23.157Z,7.10
2023-01-13T23:10:26.149Z,7.10
2023-01-13T23:16:29.734Z,7.20
2023-01-13T23:22:31.663Z,7.20
2023-01-13T23:28:35.322Z,7.20
2023-01-13T23:34:37.084Z,7.10
2023-01-13T23:40:38.892Z,7.10
2023-01-13T23:46:40.755Z,7.20
2023-01-13T23:52:42.664Z,7.10
2023-01-13T23:58:45.624Z,7.10
